Terminal Aerodrome Forecast
Issued by NWS Buffalo, NY

Home | Current Version | Previous Version | Text Only | Print | Product List | Glossary On
Versions: 1 2 3 4 5 6 7 8 9 10 11 12 13 14 15 16 17 18 19 20 21 22 23 24 25 26
000
FTUS41 KBUF 012300
TAFBUF
TAF
KBUF 012329Z 0200/0224 22007KT 1SM -SN OVC015
     FM020200 26008KT 2SM -SN OVC025
     FM020400 25008KT P6SM VCSH OVC025
     FM021200 25014G20KT P6SM OVC020
     FM021500 26017G24KT P6SM BKN035
     FM022000 28017G26KT P6SM SCT070=

USA.gov is the U.S. government's official web portal to all federal, state and local government web resources and services.